createdAt,value
2023-02-14T00:00:57.606Z,10.47
2023-02-14T00:03:24.492Z,11.90
2023-02-14T00:05:51.212Z,13.60
2023-02-14T00:08:18.218Z,13.53
2023-02-14T00:10:44.883Z,10.03
2023-02-14T00:13:11.567Z,11.43
2023-02-14T00:15:38.246Z,12.00
2023-02-14T00:18:06.155Z,15.27
2023-02-14T00:20:32.825Z,14.53
2023-02-14T00:23:00.759Z,14.33
2023-02-14T00:25:27.505Z,14.80
2023-02-14T00:27:55.426Z,12.07
2023-02-14T00:30:22.204Z,12.50
2023-02-14T00:32:48.915Z,12.17
2023-02-14T00:35:16.865Z,15.57
2023-02-14T00:37:45.169Z,11.60
2023-02-14T00:40:12.049Z,13.17
2023-02-14T00:42:39.553Z,9.87
2023-02-14T00:45:06.511Z,12.73
2023-02-14T00:47:35.178Z,13.37
2023-02-14T00:50:02.877Z,11.03
2023-02-14T00:52:30.580Z,16.20
2023-02-14T00:54:58.599Z,13.70
2023-02-14T00:57:25.267Z,11.73
2023-02-14T00:59:51.973Z,12.87
2023-02-14T01:02:18.663Z,13.50
2023-02-14T01:04:45.406Z,11.03
2023-02-14T01:07:12.052Z,17.43
2023-02-14T01:09:38.723Z,13.07
2023-02-14T01:12:05.610Z,16.30
2023-02-14T01:14:32.297Z,14.73
2023-02-14T01:16:59.057Z,11.73
2023-02-14T01:19:25.783Z,15.20
2023-02-14T01:21:52.931Z,13.00
2023-02-14T01:24:22.586Z,11.77
2023-02-14T01:26:49.284Z,11.03
2023-02-14T01:29:15.957Z,13.60
2023-02-14T01:31:42.925Z,14.30
2023-02-14T01:34:09.651Z,14.33
2023-02-14T01:36:38.861Z,12.47
2023-02-14T01:39:12.509Z,15.37
2023-02-14T01:41:41.360Z,14.03
2023-02-14T01:44:14.181Z,11.93
2023-02-14T01:46:42.676Z,13.13
2023-02-14T01:49:16.546Z,16.50
2023-02-14T01:52:03.836Z,11.70
2023-02-14T01:54:32.762Z,12.03
2023-02-14T01:57:03.309Z,16.83
2023-02-14T01:59:35.935Z,15.77
2023-02-14T02:02:03.186Z,17.13
2023-02-14T02:04:34.474Z,11.93
2023-02-14T02:07:07.727Z,13.70
2023-02-14T02:09:55.126Z,16.10
2023-02-14T02:12:24.392Z,14.80
2023-02-14T02:14:54.542Z,11.83
2023-02-14T02:17:42.875Z,14.83
2023-02-14T02:20:45.989Z,12.07
2023-02-14T02:23:39.515Z,12.40
2023-02-14T02:26:21.157Z,12.43
2023-02-14T02:29:24.210Z,14.90
2023-02-14T02:32:11.494Z,11.60
2023-02-14T02:35:09.420Z,15.50
2023-02-14T02:38:01.283Z,11.40
2023-02-14T02:40:48.614Z,14.30
2023-02-14T02:43:26.768Z,13.07
2023-02-14T02:46:19.099Z,15.70
2023-02-14T02:49:51.530Z,12.87
2023-02-14T02:52:51.073Z,18.27
2023-02-14T02:55:26.301Z,11.47
2023-02-14T02:57:55.104Z,13.13
2023-02-14T03:00:23.611Z,12.23
2023-02-14T03:03:13.211Z,14.83
2023-02-14T03:05:40.798Z,14.13
2023-02-14T03:08:07.554Z,13.83
2023-02-14T03:10:38.768Z,13.23
2023-02-14T03:13:16.709Z,14.27
2023-02-14T03:15:52.455Z,16.67
2023-02-14T03:18:57.632Z,14.27
2023-02-14T03:21:42.443Z,16.40
2023-02-14T03:24:26.992Z,23.60
2023-02-14T03:27:17.995Z,15.07
2023-02-14T03:29:59.817Z,15.37
2023-02-14T03:32:38.905Z,19.53
2023-02-14T03:35:24.406Z,13.83
2023-02-14T03:38:03.784Z,17.10
2023-02-14T03:40:44.805Z,14.47
2023-02-14T03:43:23.270Z,14.60
2023-02-14T03:45:56.816Z,16.47
2023-02-14T03:48:26.086Z,19.33
2023-02-14T03:50:54.719Z,17.37
2023-02-14T03:53:28.505Z,18.77
2023-02-14T03:56:14.046Z,17.93
2023-02-14T03:58:45.282Z,17.63
2023-02-14T04:01:19.668Z,15.90
2023-02-14T04:03:47.220Z,17.90
2023-02-14T04:06:14.069Z,19.13
2023-02-14T04:08:40.735Z,18.10
2023-02-14T04:11:07.625Z,19.83
2023-02-14T04:13:36.712Z,17.00
2023-02-14T04:16:04.184Z,17.13
2023-02-14T04:18:50.158Z,17.37
2023-02-14T04:21:17.529Z,18.00
2023-02-14T04:23:44.183Z,22.70
2023-02-14T04:26:11.219Z,21.63
2023-02-14T04:28:37.937Z,21.63
2023-02-14T04:31:06.641Z,19.03
2023-02-14T04:33:33.916Z,22.67
2023-02-14T04:36:01.241Z,21.47
2023-02-14T04:38:27.925Z,21.57
2023-02-14T04:40:54.629Z,18.80
2023-02-14T04:43:21.336Z,23.73
2023-02-14T04:45:47.980Z,20.90
2023-02-14T04:48:14.713Z,22.20
2023-02-14T04:50:41.430Z,24.63
2023-02-14T04:53:08.463Z,24.53
2023-02-14T04:55:35.232Z,24.20
2023-02-14T04:58:01.943Z,23.90
2023-02-14T05:00:28.681Z,25.60
2023-02-14T05:02:55.361Z,25.23
2023-02-14T05:05:22.032Z,26.47
2023-02-14T05:07:49.262Z,26.90
2023-02-14T05:10:16.063Z,26.53
2023-02-14T05:12:42.809Z,26.57
2023-02-14T05:15:10.036Z,29.63
2023-02-14T05:17:37.212Z,28.13
2023-02-14T05:20:05.820Z,27.50
2023-02-14T05:22:32.558Z,30.00
2023-02-14T05:24:59.263Z,28.47
2023-02-14T05:27:26.238Z,33.70
2023-02-14T05:29:52.934Z,30.27
2023-02-14T05:32:19.645Z,27.67
2023-02-14T05:34:46.361Z,33.47
2023-02-14T05:37:13.010Z,28.30
2023-02-14T05:39:39.672Z,30.37
2023-02-14T05:42:06.305Z,35.53
2023-02-14T05:44:32.982Z,33.33
2023-02-14T05:46:59.726Z,34.67
2023-02-14T05:49:26.432Z,33.07
2023-02-14T05:51:53.134Z,33.00
2023-02-14T05:54:19.819Z,35.60
2023-02-14T05:56:46.461Z,39.83
2023-02-14T05:59:14.482Z,30.50
2023-02-14T06:01:41.131Z,35.53
2023-02-14T06:04:07.896Z,32.53
2023-02-14T06:06:36.607Z,33.30
2023-02-14T06:09:03.578Z,34.63
2023-02-14T06:11:30.389Z,38.17
2023-02-14T06:13:57.874Z,35.87
2023-02-14T06:16:24.560Z,32.47
2023-02-14T06:18:51.233Z,30.87
2023-02-14T06:21:17.924Z,29.30
2023-02-14T06:23:44.557Z,30.93
2023-02-14T06:26:11.317Z,31.70
2023-02-14T06:28:37.979Z,25.70
2023-02-14T06:31:05.175Z,33.60
2023-02-14T06:33:31.950Z,30.40
2023-02-14T06:35:58.716Z,31.60
2023-02-14T06:38:25.350Z,29.30
2023-02-14T06:40:51.989Z,33.83
2023-02-14T06:43:18.642Z,31.57
2023-02-14T06:45:46.671Z,33.00
2023-02-14T06:48:13.354Z,30.87
2023-02-14T06:50:40.050Z,27.93
2023-02-14T06:53:06.753Z,32.43
2023-02-14T06:55:33.451Z,29.63
2023-02-14T06:58:00.133Z,35.67
2023-02-14T07:00:26.977Z,26.37
2023-02-14T07:02:53.681Z,29.33
2023-02-14T07:05:20.539Z,29.73
2023-02-14T07:07:47.898Z,36.13
2023-02-14T07:10:15.789Z,34.27
2023-02-14T07:12:42.577Z,29.20
2023-02-14T07:15:12.188Z,32.00
2023-02-14T07:17:38.974Z,33.47
2023-02-14T07:20:07.208Z,34.50
2023-02-14T07:22:34.220Z,35.20
2023-02-14T07:25:00.901Z,33.03
2023-02-14T07:27:27.630Z,33.97
2023-02-14T07:29:54.378Z,33.37
2023-02-14T07:32:21.420Z,32.40
2023-02-14T07:34:48.226Z,30.83
2023-02-14T07:37:16.665Z,33.00
2023-02-14T07:39:44.366Z,34.57
2023-02-14T07:42:11.709Z,35.10
2023-02-14T07:44:42.136Z,35.87
2023-02-14T07:47:09.815Z,30.53
2023-02-14T07:49:36.993Z,31.73
2023-02-14T07:52:04.676Z,31.77
2023-02-14T07:54:31.345Z,35.43
2023-02-14T07:56:58.032Z,36.73
2023-02-14T07:59:26.055Z,31.60
2023-02-14T08:01:53.010Z,31.97
2023-02-14T08:04:19.744Z,33.00
2023-02-14T08:06:46.412Z,32.37
2023-02-14T08:09:24.455Z,30.90
2023-02-14T08:12:11.485Z,32.27
2023-02-14T08:14:38.362Z,33.37
2023-02-14T08:17:07.160Z,30.83
2023-02-14T08:19:34.297Z,31.50
2023-02-14T08:22:00.925Z,32.93
2023-02-14T08:24:27.860Z,29.53
2023-02-14T08:26:54.538Z,27.03
2023-02-14T08:29:21.271Z,28.80
2023-02-14T08:31:48.750Z,27.90
2023-02-14T08:34:16.813Z,30.50
2023-02-14T08:36:43.687Z,26.73
2023-02-14T08:39:10.464Z,29.30
2023-02-14T08:41:37.194Z,27.87
2023-02-14T08:44:03.937Z,29.23
2023-02-14T08:46:30.644Z,26.47
2023-02-14T08:48:57.348Z,25.17
2023-02-14T08:51:24.049Z,25.80
2023-02-14T08:53:51.879Z,24.97
2023-02-14T08:56:21.228Z,29.33
2023-02-14T08:58:51.179Z,23.37
2023-02-14T09:01:18.981Z,23.73
2023-02-14T09:03:45.772Z,22.80
2023-02-14T09:06:16.902Z,22.53
2023-02-14T09:08:44.978Z,25.90
2023-02-14T09:11:22.084Z,22.77
2023-02-14T09:13:50.058Z,21.27
2023-02-14T09:16:17.926Z,24.87
2023-02-14T09:18:46.137Z,20.97
2023-02-14T09:21:19.799Z,19.47
2023-02-14T09:23:46.483Z,23.43
2023-02-14T09:26:15.769Z,20.10
2023-02-14T09:28:44.076Z,21.50
2023-02-14T09:31:21.450Z,19.83
2023-02-14T09:34:08.245Z,22.43
2023-02-14T09:36:53.786Z,22.47
2023-02-14T09:39:20.577Z,23.97
2023-02-14T09:42:13.561Z,19.20
2023-02-14T09:44:45.376Z,23.07
2023-02-14T09:47:37.387Z,21.50
2023-02-14T09:50:07.758Z,20.03
2023-02-14T09:52:34.484Z,19.07
2023-02-14T09:55:03.156Z,19.07
2023-02-14T09:57:38.562Z,17.40
2023-02-14T10:00:25.320Z,20.87
2023-02-14T10:03:07.770Z,21.43
2023-02-14T10:06:01.864Z,22.20
2023-02-14T10:09:11.761Z,17.70
2023-02-14T10:11:39.329Z,22.57
2023-02-14T10:14:17.079Z,19.20
2023-02-14T10:16:49.820Z,21.10
2023-02-14T10:19:39.820Z,24.47
2023-02-14T10:22:18.869Z,19.37
2023-02-14T10:25:06.551Z,22.93
2023-02-14T10:27:43.800Z,18.83
2023-02-14T10:30:23.590Z,20.57
2023-02-14T10:33:17.561Z,17.47
2023-02-14T10:36:00.594Z,21.73
2023-02-14T10:39:09.042Z,18.83
2023-02-14T10:41:35.638Z,20.17
2023-02-14T10:44:16.587Z,19.57
2023-02-14T10:46:57.094Z,19.80
2023-02-14T10:49:33.021Z,19.43
2023-02-14T10:52:15.589Z,33.47
2023-02-14T10:54:45.682Z,20.53
2023-02-14T10:57:40.642Z,16.50
2023-02-14T11:00:23.259Z,20.37
2023-02-14T11:02:53.828Z,21.67
2023-02-14T11:05:25.807Z,18.53
2023-02-14T11:07:52.831Z,18.80
2023-02-14T11:10:26.369Z,20.30
2023-02-14T11:12:53.810Z,22.40
2023-02-14T11:15:28.848Z,19.57
2023-02-14T11:18:24.824Z,19.27
2023-02-14T11:21:04.294Z,18.90
2023-02-14T11:23:57.376Z,20.00
2023-02-14T11:26:32.394Z,18.70
2023-02-14T11:29:10.270Z,18.60
2023-02-14T11:31:38.696Z,16.87
2023-02-14T11:34:24.130Z,18.50
2023-02-14T11:36:50.926Z,15.00
2023-02-14T11:39:32.560Z,18.60
2023-02-14T11:42:03.977Z,19.60
2023-02-14T11:44:33.124Z,19.83
2023-02-14T11:47:28.888Z,17.83
2023-02-14T11:49:58.410Z,20.20
2023-02-14T11:52:29.517Z,21.10
2023-02-14T11:54:58.233Z,16.67
2023-02-14T11:57:38.785Z,19.40
2023-02-14T12:00:19.842Z,17.03
2023-02-14T12:02:49.701Z,18.13
2023-02-14T12:05:19.470Z,20.87
2023-02-14T12:07:55.311Z,19.60
2023-02-14T12:10:32.793Z,19.90
2023-02-14T12:13:08.299Z,20.80
2023-02-14T12:15:44.848Z,19.70
2023-02-14T12:18:24.628Z,18.70
2023-02-14T12:21:36.613Z,17.77
2023-02-14T12:24:28.022Z,18.40
2023-02-14T12:27:02.530Z,18.67
2023-02-14T12:29:50.587Z,18.77
2023-02-14T12:32:25.265Z,17.57
2023-02-14T12:35:03.417Z,17.40
2023-02-14T12:37:36.095Z,18.07
2023-02-14T12:40:31.685Z,16.87
2023-02-14T12:43:38.900Z,19.10
2023-02-14T12:46:39.459Z,17.43
2023-02-14T12:49:18.547Z,15.43
2023-02-14T12:52:09.672Z,16.27
2023-02-14T12:54:57.078Z,14.97
2023-02-14T12:57:54.081Z,18.23
2023-02-14T13:00:34.461Z,13.37
2023-02-14T13:03:19.475Z,15.53
2023-02-14T13:06:09.989Z,16.90
2023-02-14T13:08:39.653Z,16.60
2023-02-14T13:11:15.250Z,17.00
2023-02-14T13:13:53.478Z,16.33
2023-02-14T13:16:33.401Z,15.57
2023-02-14T13:19:16.010Z,15.47
2023-02-14T13:21:44.182Z,16.10
2023-02-14T13:24:22.720Z,14.83
2023-02-14T13:26:56.137Z,20.13
2023-02-14T13:29:25.475Z,16.57
2023-02-14T13:31:57.282Z,17.83
2023-02-14T13:34:30.585Z,17.83
2023-02-14T13:36:59.088Z,18.30
2023-02-14T13:39:38.654Z,13.23
2023-02-14T13:42:07.205Z,15.57
2023-02-14T13:44:46.300Z,16.63
2023-02-14T13:47:24.279Z,17.30
2023-02-14T13:50:01.611Z,18.07
2023-02-14T13:52:48.778Z,16.97
2023-02-14T13:55:25.190Z,16.20
2023-02-14T13:58:05.710Z,15.20
2023-02-14T14:00:42.578Z,16.43
2023-02-14T14:03:35.704Z,16.87
2023-02-14T14:06:11.727Z,15.63
2023-02-14T14:08:42.159Z,14.00
2023-02-14T14:11:26.033Z,14.70
2023-02-14T14:13:57.044Z,12.87
2023-02-14T14:16:24.078Z,13.37
2023-02-14T14:19:21.066Z,16.00
2023-02-14T14:22:09.096Z,11.30
2023-02-14T14:24:40.774Z,13.70
2023-02-14T14:27:19.813Z,14.63
2023-02-14T14:29:55.893Z,11.53
2023-02-14T14:32:38.039Z,13.80
2023-02-14T14:35:23.951Z,15.93
2023-02-14T14:37:57.526Z,14.13
2023-02-14T14:40:29.132Z,16.30
2023-02-14T14:43:01.633Z,13.70
2023-02-14T14:45:31.260Z,14.00
2023-02-14T14:48:00.428Z,13.10
2023-02-14T14:50:30.362Z,14.57
2023-02-14T14:53:02.858Z,14.20
2023-02-14T14:55:32.811Z,14.53
2023-02-14T14:58:04.000Z,15.87
2023-02-14T15:00:38.535Z,13.47
2023-02-14T15:03:11.826Z,15.63
2023-02-14T15:05:42.602Z,14.10
2023-02-14T15:08:24.425Z,14.53
2023-02-14T15:11:00.198Z,16.83
2023-02-14T15:13:49.724Z,15.97
2023-02-14T15:16:34.950Z,16.60
2023-02-14T15:19:11.351Z,15.13
2023-02-14T15:21:43.462Z,14.30
2023-02-14T15:24:17.759Z,16.67
2023-02-14T15:26:46.957Z,14.30
2023-02-14T15:29:26.812Z,12.80
2023-02-14T15:31:54.270Z,13.90
2023-02-14T15:34:24.804Z,13.83
2023-02-14T15:36:55.967Z,17.83
2023-02-14T15:39:27.297Z,13.77
2023-02-14T15:41:55.507Z,15.80
2023-02-14T15:44:24.862Z,16.80
2023-02-14T15:47:03.465Z,14.03
2023-02-14T15:49:36.357Z,13.57
2023-02-14T15:52:06.580Z,13.63
2023-02-14T15:54:46.569Z,10.73
2023-02-14T15:57:27.941Z,12.63
2023-02-14T15:59:55.042Z,14.40
2023-02-14T16:02:38.383Z,15.03
2023-02-14T16:05:18.402Z,16.27
2023-02-14T16:08:05.649Z,17.97
2023-02-14T16:10:37.438Z,12.40
2023-02-14T16:13:20.403Z,17.20
2023-02-14T16:16:16.932Z,12.50
2023-02-14T16:18:47.570Z,14.87
2023-02-14T16:21:23.517Z,13.70
2023-02-14T16:24:11.283Z,14.53
2023-02-14T16:26:45.413Z,18.23
2023-02-14T16:29:15.698Z,11.73
2023-02-14T16:32:06.187Z,15.37
2023-02-14T16:34:31.734Z,15.70
2023-02-14T16:36:58.402Z,12.27
2023-02-14T16:39:26.230Z,14.40
2023-02-14T16:41:55.378Z,16.47
2023-02-14T16:44:22.499Z,15.07
2023-02-14T16:46:49.145Z,14.90
2023-02-14T16:49:15.828Z,15.50
2023-02-14T16:51:46.209Z,13.60
2023-02-14T16:54:17.509Z,13.87
2023-02-14T16:56:59.518Z,14.90
2023-02-14T16:59:26.193Z,15.50
2023-02-14T17:01:53.339Z,14.50
2023-02-14T17:04:21.045Z,14.77
2023-02-14T17:06:53.396Z,16.23
2023-02-14T17:09:25.659Z,17.50
2023-02-14T17:11:54.546Z,17.50
2023-02-14T17:14:26.771Z,17.70
2023-02-14T17:16:55.082Z,16.10
2023-02-14T17:19:21.831Z,14.80
2023-02-14T17:21:48.671Z,15.20
2023-02-14T17:24:15.790Z,20.70
2023-02-14T17:26:42.430Z,14.07
2023-02-14T17:29:09.685Z,18.90
2023-02-14T17:31:37.002Z,17.00
2023-02-14T17:34:03.961Z,16.60
2023-02-14T17:36:30.961Z,19.67
2023-02-14T17:38:57.844Z,20.87
2023-02-14T17:41:26.425Z,17.13
2023-02-14T17:43:54.770Z,16.33
2023-02-14T17:46:22.123Z,24.73
2023-02-14T17:48:49.176Z,20.53
2023-02-14T17:51:17.886Z,21.90
2023-02-14T17:53:44.540Z,22.47
2023-02-14T17:56:14.470Z,19.07
2023-02-14T17:58:41.255Z,20.13
2023-02-14T18:01:11.297Z,25.63
2023-02-14T18:03:39.249Z,19.50
2023-02-14T18:06:07.520Z,18.40
2023-02-14T18:08:37.077Z,21.20
2023-02-14T18:11:09.307Z,21.50
2023-02-14T18:13:36.823Z,20.03
2023-02-14T18:16:05.791Z,22.73
2023-02-14T18:18:33.175Z,21.80
2023-02-14T18:21:02.050Z,25.27
2023-02-14T18:23:30.652Z,18.90
2023-02-14T18:26:01.122Z,24.97
2023-02-14T18:28:28.318Z,23.03
2023-02-14T18:30:57.687Z,22.97
2023-02-14T18:33:25.588Z,22.93
2023-02-14T18:35:52.440Z,24.30
2023-02-14T18:38:19.604Z,21.93
2023-02-14T18:40:46.768Z,23.27
2023-02-14T18:43:13.613Z,21.67
2023-02-14T18:45:40.541Z,21.57
2023-02-14T18:48:08.965Z,24.60
2023-02-14T18:50:35.776Z,22.20
2023-02-14T18:53:02.446Z,27.47
2023-02-14T18:55:29.160Z,19.50
2023-02-14T18:57:55.915Z,22.10
2023-02-14T19:00:23.611Z,23.83
2023-02-14T19:02:50.277Z,21.70
2023-02-14T19:05:17.000Z,25.20
2023-02-14T19:07:43.646Z,21.30
2023-02-14T19:10:11.033Z,27.23
2023-02-14T19:12:37.689Z,29.23
2023-02-14T19:15:05.938Z,22.50
2023-02-14T19:17:32.901Z,21.73
2023-02-14T19:19:59.693Z,21.23
2023-02-14T19:22:26.462Z,22.30
2023-02-14T19:24:53.789Z,23.43
2023-02-14T19:27:21.469Z,29.00
2023-02-14T19:29:48.325Z,21.17
2023-02-14T19:32:15.166Z,21.07
2023-02-14T19:34:41.873Z,24.60
2023-02-14T19:37:08.616Z,20.97
2023-02-14T19:39:35.322Z,24.47
2023-02-14T19:42:03.912Z,25.43
2023-02-14T19:44:32.299Z,29.60
2023-02-14T19:47:09.811Z,26.63
2023-02-14T19:49:42.596Z,27.30
2023-02-14T19:52:25.649Z,27.37
2023-02-14T19:54:55.282Z,26.17
2023-02-14T19:57:22.092Z,26.57
2023-02-14T19:59:49.003Z,28.17
2023-02-14T20:02:18.242Z,27.67
2023-02-14T20:04:45.115Z,26.90
2023-02-14T20:07:11.944Z,27.97
2023-02-14T20:09:38.666Z,27.20
2023-02-14T20:12:05.724Z,28.30
2023-02-14T20:14:49.882Z,28.03
2023-02-14T20:17:18.090Z,27.93
2023-02-14T20:19:44.916Z,26.10
2023-02-14T20:22:11.966Z,24.70
2023-02-14T20:24:38.670Z,24.50
2023-02-14T20:27:05.387Z,27.03
2023-02-14T20:29:33.073Z,25.47
2023-02-14T20:32:03.203Z,26.57
2023-02-14T20:34:30.488Z,29.50
2023-02-14T20:36:59.166Z,31.00
2023-02-14T20:39:36.511Z,25.30
2023-02-14T20:42:04.374Z,25.37
2023-02-14T20:44:31.632Z,27.87
2023-02-14T20:46:58.843Z,28.60
2023-02-14T20:49:26.973Z,26.53
2023-02-14T20:51:54.303Z,31.00
2023-02-14T20:54:24.232Z,30.10
2023-02-14T20:56:51.516Z,26.43
2023-02-14T20:59:26.804Z,27.10
2023-02-14T21:01:54.866Z,30.77
2023-02-14T21:04:21.863Z,27.50
2023-02-14T21:06:49.087Z,29.33
2023-02-14T21:09:16.591Z,33.50
2023-02-14T21:11:43.265Z,28.93
2023-02-14T21:14:10.440Z,30.13
2023-02-14T21:16:37.148Z,34.60
2023-02-14T21:19:04.725Z,28.57
2023-02-14T21:21:35.905Z,31.70
2023-02-14T21:24:05.940Z,29.10
2023-02-14T21:26:32.707Z,31.13
2023-02-14T21:28:59.461Z,29.00
2023-02-14T21:31:26.871Z,36.47
2023-02-14T21:33:55.875Z,32.70
2023-02-14T21:36:24.944Z,35.90
2023-02-14T21:38:54.171Z,28.67
2023-02-14T21:41:23.295Z,29.20
2023-02-14T21:43:55.012Z,30.07
2023-02-14T21:46:27.513Z,29.50
2023-02-14T21:49:14.047Z,32.33
2023-02-14T21:51:41.308Z,29.50
2023-02-14T21:54:08.694Z,32.70
2023-02-14T21:56:36.953Z,37.30
2023-02-14T21:59:03.737Z,34.23
2023-02-14T22:01:36.056Z,35.40
2023-02-14T22:04:07.701Z,31.87
2023-02-14T22:06:37.203Z,31.87
2023-02-14T22:09:04.237Z,32.67
2023-02-14T22:11:31.175Z,35.73
2023-02-14T22:13:58.546Z,32.50
2023-02-14T22:16:25.315Z,36.27
2023-02-14T22:18:52.458Z,40.80
2023-02-14T22:21:22.862Z,33.00
2023-02-14T22:23:49.960Z,34.80
2023-02-14T22:26:20.137Z,34.87
2023-02-14T22:28:48.256Z,33.80
2023-02-14T22:31:17.131Z,28.13
2023-02-14T22:33:44.460Z,32.00
2023-02-14T22:36:11.414Z,30.73
2023-02-14T22:38:38.399Z,34.33
2023-02-14T22:41:16.954Z,31.20
2023-02-14T22:43:43.994Z,33.20
2023-02-14T22:46:17.406Z,36.03
2023-02-14T22:48:44.193Z,33.33
2023-02-14T22:51:29.085Z,33.00
2023-02-14T22:53:58.531Z,32.77
2023-02-14T22:56:31.074Z,35.93
2023-02-14T22:59:00.778Z,33.23
2023-02-14T23:01:28.338Z,39.00
2023-02-14T23:03:57.053Z,37.90
2023-02-14T23:06:25.322Z,29.30
2023-02-14T23:08:52.845Z,34.47
2023-02-14T23:11:25.113Z,35.73
2023-02-14T23:14:10.757Z,32.90
2023-02-14T23:16:56.157Z,33.47
2023-02-14T23:19:47.613Z,35.27
2023-02-14T23:22:19.555Z,33.97
2023-02-14T23:24:47.418Z,36.27
2023-02-14T23:27:15.255Z,40.97
2023-02-14T23:29:41.900Z,38.33
2023-02-14T23:32:09.424Z,32.63
2023-02-14T23:34:39.157Z,36.80
2023-02-14T23:37:06.488Z,41.70
2023-02-14T23:39:35.686Z,36.60
2023-02-14T23:42:07.583Z,42.60
2023-02-14T23:44:34.706Z,34.07
2023-02-14T23:47:04.293Z,38.10
2023-02-14T23:49:32.729Z,34.70
2023-02-14T23:51:59.938Z,38.53
2023-02-14T23:54:27.019Z,37.33
2023-02-14T23:56:54.774Z,38.03
2023-02-14T23:59:22.019Z,39.33
